createdAt,value
2024-01-20T00:00:49.943Z,1015.81
2024-01-20T00:01:48.948Z,1015.87
2024-01-20T00:02:49.953Z,1015.84
2024-01-20T00:03:48.970Z,1015.79
2024-01-20T00:04:49.134Z,1015.86
2024-01-20T00:05:50.008Z,1015.81
2024-01-20T00:06:49.059Z,1015.79
2024-01-20T00:07:50.084Z,1015.86
2024-01-20T00:08:49.072Z,1015.80
2024-01-20T00:09:51.238Z,1015.81
2024-01-20T00:10:50.176Z,1015.84
2024-01-20T00:11:49.144Z,1015.88
2024-01-20T00:12:50.170Z,1015.96
2024-01-20T00:13:49.299Z,1015.92
2024-01-20T00:14:49.225Z,1015.90
2024-01-20T00:15:50.263Z,1015.92
2024-01-20T00:16:49.361Z,1015.89
2024-01-20T00:17:50.425Z,1015.87
2024-01-20T00:18:49.406Z,1015.87
2024-01-20T00:19:50.002Z,1015.86
2024-01-20T00:20:50.387Z,1015.94
2024-01-20T00:21:49.373Z,1015.88
2024-01-20T00:22:50.417Z,1015.79
2024-01-20T00:23:49.459Z,1015.91
2024-01-20T00:24:49.483Z,1015.87
2024-01-20T00:25:50.527Z,1015.97
2024-01-20T00:26:49.513Z,1015.96
2024-01-20T00:27:50.534Z,1015.90
2024-01-20T00:28:49.577Z,1015.86
2024-01-20T00:29:49.564Z,1015.98
2024-01-20T00:30:50.595Z,1016.11
2024-01-20T00:31:49.661Z,1015.98
2024-01-20T00:32:50.728Z,1016.00
2024-01-20T00:33:49.777Z,1015.98
2024-01-20T00:34:59.760Z,1016.01
2024-01-20T00:35:50.792Z,1015.94
2024-01-20T00:36:49.724Z,1015.88
2024-01-20T00:37:50.815Z,1015.91
2024-01-20T00:38:49.793Z,1015.95
2024-01-20T00:39:49.797Z,1015.91
2024-01-20T00:40:50.852Z,1015.97
2024-01-20T00:41:49.850Z,1015.91
2024-01-20T00:42:50.871Z,1016.03
2024-01-20T00:43:49.939Z,1016.06
2024-01-20T00:44:49.908Z,1016.07
2024-01-20T00:45:50.973Z,1016.13
2024-01-20T00:46:50.017Z,1016.15
2024-01-20T00:47:51.024Z,1016.13
2024-01-20T00:48:50.052Z,1016.23
2024-01-20T00:49:50.070Z,1016.14
2024-01-20T00:50:51.072Z,1016.17
2024-01-20T00:51:50.077Z,1016.18
2024-01-20T00:52:51.159Z,1016.16
2024-01-20T00:53:50.120Z,1016.20
2024-01-20T00:54:50.155Z,1016.21
2024-01-20T00:55:51.284Z,1016.16
2024-01-20T00:56:50.239Z,1016.20
2024-01-20T00:57:51.247Z,1016.21
2024-01-20T00:58:50.286Z,1016.19
2024-01-20T00:59:50.263Z,1016.20
2024-01-20T01:00:51.325Z,1016.36
2024-01-20T01:01:50.379Z,1016.41
2024-01-20T01:02:51.394Z,1016.19
2024-01-20T01:03:50.412Z,1016.22
2024-01-20T01:04:50.406Z,1016.31
2024-01-20T01:05:51.453Z,1016.40
2024-01-20T01:06:50.434Z,1016.33
2024-01-20T01:07:51.557Z,1016.36
2024-01-20T01:08:50.484Z,1016.42
2024-01-20T01:09:50.509Z,1016.28
2024-01-20T01:10:51.613Z,1016.45
2024-01-20T01:11:50.541Z,1016.39
2024-01-20T01:12:51.613Z,1016.51
2024-01-20T01:13:50.654Z,1016.52
2024-01-20T01:14:50.635Z,1016.40
2024-01-20T01:15:53.211Z,1016.47
2024-01-20T01:16:50.725Z,1016.44
2024-01-20T01:17:51.795Z,1016.49
2024-01-20T01:18:50.729Z,1016.60
2024-01-20T01:19:50.751Z,1016.54
2024-01-20T01:20:51.769Z,1016.57
2024-01-20T01:21:50.793Z,1016.61
2024-01-20T01:22:51.959Z,1016.63
2024-01-20T01:23:50.868Z,1016.65
2024-01-20T01:24:50.919Z,1016.61
2024-01-20T01:25:51.920Z,1016.64
2024-01-20T01:26:50.953Z,1016.63
2024-01-20T01:27:51.934Z,1016.64
2024-01-20T01:28:50.959Z,1016.64
2024-01-20T01:29:51.010Z,1016.70
2024-01-20T01:30:52.057Z,1016.67
2024-01-20T01:31:51.036Z,1016.70
2024-01-20T01:32:52.073Z,1016.65
2024-01-20T01:33:51.116Z,1016.67
2024-01-20T01:34:51.135Z,1016.69
2024-01-20T01:35:52.114Z,1016.69
2024-01-20T01:36:51.135Z,1016.81
2024-01-20T01:37:52.179Z,1016.83
2024-01-20T01:38:51.180Z,1016.82
2024-01-20T01:39:51.187Z,1016.88
2024-01-20T01:40:52.261Z,1016.76
2024-01-20T01:41:51.275Z,1016.90
2024-01-20T01:42:52.288Z,1016.75
2024-01-20T01:43:51.335Z,1016.78
2024-01-20T01:44:51.326Z,1016.80
2024-01-20T01:45:52.425Z,1017.00
2024-01-20T01:46:51.455Z,1016.77
2024-01-20T01:47:52.451Z,1016.85
2024-01-20T01:48:51.493Z,1016.72
2024-01-20T01:49:51.488Z,1016.70
2024-01-20T01:50:52.484Z,1016.91
2024-01-20T01:51:51.481Z,1016.79
2024-01-20T01:52:52.523Z,1016.93
2024-01-20T01:53:51.573Z,1016.77
2024-01-20T01:54:51.578Z,1016.82
2024-01-20T01:55:52.583Z,1016.83
2024-01-20T01:56:51.689Z,1016.80
2024-01-20T01:57:52.618Z,1016.85
2024-01-20T01:58:51.736Z,1016.86
2024-01-20T01:59:51.679Z,1016.78
2024-01-20T02:00:52.740Z,1016.83
2024-01-20T02:01:51.729Z,1016.82
2024-01-20T02:02:52.778Z,1016.76
2024-01-20T02:03:51.951Z,1016.87
2024-01-20T02:04:51.775Z,1016.92
2024-01-20T02:05:52.938Z,1016.79
2024-01-20T02:06:51.978Z,1016.74
2024-01-20T02:07:52.862Z,1016.70
2024-01-20T02:08:51.927Z,1016.81
2024-01-20T02:09:51.907Z,1016.76
2024-01-20T02:10:52.951Z,1016.75
2024-01-20T02:11:52.017Z,1016.75
2024-01-20T02:12:52.970Z,1016.81
2024-01-20T02:13:51.977Z,1016.69
2024-01-20T02:14:52.050Z,1016.73
2024-01-20T02:15:53.045Z,1016.67
2024-01-20T02:16:52.091Z,1016.74
2024-01-20T02:17:53.224Z,1016.83
2024-01-20T02:18:52.167Z,1016.78
2024-01-20T02:19:52.130Z,1016.71
2024-01-20T02:20:53.157Z,1016.70
2024-01-20T02:21:52.169Z,1016.74
2024-01-20T02:22:53.217Z,1016.69
2024-01-20T02:23:52.256Z,1016.75
2024-01-20T02:24:52.248Z,1016.72
2024-01-20T02:25:53.263Z,1016.74
2024-01-20T02:26:52.305Z,1016.76
2024-01-20T02:27:53.313Z,1016.72
2024-01-20T02:28:52.339Z,1016.77
2024-01-20T02:29:52.335Z,1016.76
2024-01-20T02:30:53.375Z,1016.72
2024-01-20T02:31:52.372Z,1016.75
2024-01-20T02:32:53.548Z,1016.77
2024-01-20T02:33:52.610Z,1016.76
2024-01-20T02:34:52.423Z,1016.83
2024-01-20T02:35:53.485Z,1016.78
2024-01-20T02:36:52.488Z,1016.71
2024-01-20T02:37:53.516Z,1016.72
2024-01-20T02:38:52.634Z,1016.83
2024-01-20T02:39:52.550Z,1016.81
2024-01-20T02:40:53.583Z,1016.81
2024-01-20T02:41:52.594Z,1016.78
2024-01-20T02:42:53.618Z,1016.67
2024-01-20T02:43:52.662Z,1016.79
2024-01-20T02:44:52.803Z,1016.80
2024-01-20T02:45:53.690Z,1016.84
2024-01-20T02:46:52.701Z,1016.98
2024-01-20T02:47:53.882Z,1016.87
2024-01-20T02:48:52.828Z,1016.86
2024-01-20T02:49:52.859Z,1016.96
2024-01-20T02:50:53.847Z,1016.93
2024-01-20T02:51:52.840Z,1016.88
2024-01-20T02:52:53.870Z,1016.97
2024-01-20T02:53:52.888Z,1016.86
2024-01-20T02:54:52.890Z,1016.79
2024-01-20T02:55:53.932Z,1016.79
2024-01-20T02:56:52.979Z,1016.86
2024-01-20T02:57:53.967Z,1016.84
2024-01-20T02:58:52.985Z,1016.76
2024-01-20T02:59:53.049Z,1016.79
2024-01-20T03:00:54.070Z,1016.88
2024-01-20T03:01:53.053Z,1016.69
2024-01-20T03:02:54.179Z,1016.90
2024-01-20T03:03:53.159Z,1016.85
2024-01-20T03:04:53.232Z,1016.88
2024-01-20T03:05:54.238Z,1016.87
2024-01-20T03:06:53.181Z,1016.94
2024-01-20T03:07:54.227Z,1016.89
2024-01-20T03:08:53.252Z,1016.83
2024-01-20T03:09:53.250Z,1016.87
2024-01-20T03:10:54.280Z,1016.87
2024-01-20T03:11:53.347Z,1016.92
2024-01-20T03:12:54.317Z,1016.84
2024-01-20T03:13:53.340Z,1016.94
2024-01-20T03:14:53.410Z,1016.97
2024-01-20T03:15:54.409Z,1016.94
2024-01-20T03:16:53.417Z,1016.95
2024-01-20T03:17:54.516Z,1017.04
2024-01-20T03:18:53.489Z,1016.96
2024-01-20T03:19:53.525Z,1017.00
2024-01-20T03:20:54.551Z,1017.09
2024-01-20T03:21:53.533Z,1017.13
2024-01-20T03:22:54.565Z,1017.05
2024-01-20T03:23:53.610Z,1017.05
2024-01-20T03:24:53.633Z,1017.10
2024-01-20T03:25:54.635Z,1017.09
2024-01-20T03:26:55.035Z,1017.07
2024-01-20T03:27:54.701Z,1016.98
2024-01-20T03:28:53.694Z,1017.15
2024-01-20T03:29:53.753Z,1017.05
2024-01-20T03:30:54.751Z,1017.06
2024-01-20T03:31:53.767Z,1017.06
2024-01-20T03:32:54.902Z,1017.08
2024-01-20T03:33:53.890Z,1017.15
2024-01-20T03:34:53.832Z,1017.12
2024-01-20T03:35:54.893Z,1017.07
2024-01-20T03:36:53.885Z,1017.01
2024-01-20T03:37:54.915Z,1017.12
2024-01-20T03:38:53.937Z,1017.14
2024-01-20T03:39:53.941Z,1017.16
2024-01-20T03:40:54.978Z,1017.05
2024-01-20T03:41:54.019Z,1017.14
2024-01-20T03:42:55.024Z,1017.13
2024-01-20T03:43:54.038Z,1017.19
2024-01-20T03:44:54.062Z,1017.10
2024-01-20T03:45:55.100Z,1017.14
2024-01-20T03:46:54.106Z,1017.17
2024-01-20T03:47:55.282Z,1017.13
2024-01-20T03:48:54.377Z,1017.30
2024-01-20T03:49:54.299Z,1017.22
2024-01-20T03:50:55.244Z,1017.15
2024-01-20T03:51:54.225Z,1017.17
2024-01-20T03:52:55.261Z,1017.27
2024-01-20T03:53:54.305Z,1017.19
2024-01-20T03:54:54.293Z,1017.34
2024-01-20T03:55:55.338Z,1017.31
2024-01-20T03:56:54.377Z,1017.30
2024-01-20T03:57:55.382Z,1017.30
2024-01-20T03:58:54.410Z,1017.37
2024-01-20T03:59:54.459Z,1017.32
2024-01-20T04:00:55.462Z,1017.43
2024-01-20T04:01:54.466Z,1017.40
2024-01-20T04:02:55.499Z,1017.51
2024-01-20T04:03:54.581Z,1017.36
2024-01-20T04:04:54.530Z,1017.37
2024-01-20T04:05:55.624Z,1017.33
2024-01-20T04:06:54.564Z,1017.47
2024-01-20T04:07:55.618Z,1017.44
2024-01-20T04:08:54.635Z,1017.47
2024-01-20T04:09:54.663Z,1017.40
2024-01-20T04:10:55.679Z,1017.43
2024-01-20T04:11:54.707Z,1017.47
2024-01-20T04:12:55.736Z,1017.46
2024-01-20T04:13:54.733Z,1017.52
2024-01-20T04:14:54.768Z,1017.46
2024-01-20T04:15:55.798Z,1017.47
2024-01-20T04:16:54.814Z,1017.48
2024-01-20T04:17:55.990Z,1017.50
2024-01-20T04:18:54.932Z,1017.48
2024-01-20T04:19:55.843Z,1017.54
2024-01-20T04:20:55.929Z,1017.53
2024-01-20T04:21:54.942Z,1017.47
2024-01-20T04:22:55.963Z,1017.58
2024-01-20T04:23:54.980Z,1017.48
2024-01-20T04:24:55.000Z,1017.53
2024-01-20T04:25:56.028Z,1017.46
2024-01-20T04:26:55.048Z,1017.51
2024-01-20T04:27:56.074Z,1017.45
2024-01-20T04:28:55.089Z,1017.40
2024-01-20T04:29:55.137Z,1017.44
2024-01-20T04:30:56.140Z,1017.60
2024-01-20T04:31:55.232Z,1017.47
2024-01-20T04:32:56.329Z,1017.48
2024-01-20T04:33:55.266Z,1017.52
2024-01-20T04:34:55.229Z,1017.58
2024-01-20T04:35:56.301Z,1017.49
2024-01-20T04:36:55.281Z,1017.49
2024-01-20T04:37:56.312Z,1017.53
2024-01-20T04:38:55.343Z,1017.47
2024-01-20T04:39:55.345Z,1017.50
2024-01-20T04:40:56.381Z,1017.45
2024-01-20T04:41:55.429Z,1017.44
2024-01-20T04:42:56.480Z,1017.45
2024-01-20T04:43:55.441Z,1017.56
2024-01-20T04:44:55.517Z,1017.46
2024-01-20T04:45:56.541Z,1017.50
2024-01-20T04:46:55.497Z,1017.53
2024-01-20T04:47:56.723Z,1017.50
2024-01-20T04:48:55.735Z,1017.63
2024-01-20T04:49:55.609Z,1017.50
2024-01-20T04:50:56.648Z,1017.62
2024-01-20T04:51:55.642Z,1017.56
2024-01-20T04:52:56.686Z,1017.59
2024-01-20T04:53:55.690Z,1017.56
2024-01-20T04:54:55.689Z,1017.53
2024-01-20T04:55:56.750Z,1017.65
2024-01-20T04:56:55.810Z,1017.58
2024-01-20T04:57:56.773Z,1017.58
2024-01-20T04:58:55.784Z,1017.63
2024-01-20T04:59:55.823Z,1017.55
2024-01-20T05:00:56.874Z,1017.63
2024-01-20T05:01:55.860Z,1017.60
2024-01-20T05:02:56.902Z,1017.62
2024-01-20T05:03:55.980Z,1017.65
2024-01-20T05:04:55.913Z,1017.61
2024-01-20T05:05:57.015Z,1017.63
2024-01-20T05:06:56.033Z,1017.65
2024-01-20T05:07:56.996Z,1017.67
2024-01-20T05:08:56.060Z,1017.68
2024-01-20T05:09:56.030Z,1017.74
2024-01-20T05:10:57.072Z,1017.72
2024-01-20T05:11:56.156Z,1017.82
2024-01-20T05:12:57.141Z,1017.76
2024-01-20T05:13:56.118Z,1017.81
2024-01-20T05:14:56.168Z,1017.79
2024-01-20T05:15:57.188Z,1017.87
2024-01-20T05:16:56.215Z,1017.78
2024-01-20T05:17:57.389Z,1017.88
2024-01-20T05:18:56.390Z,1017.83
2024-01-20T05:19:56.387Z,1017.87
2024-01-20T05:20:57.357Z,1017.96
2024-01-20T05:21:56.323Z,1017.88
2024-01-20T05:22:57.354Z,1017.81
2024-01-20T05:23:56.367Z,1017.85
2024-01-20T05:24:56.393Z,1017.79
2024-01-20T05:25:57.418Z,1017.80
2024-01-20T05:26:56.511Z,1017.77
2024-01-20T05:27:57.472Z,1017.80
2024-01-20T05:28:56.475Z,1017.86
2024-01-20T05:29:56.503Z,1017.82
2024-01-20T05:30:57.543Z,1017.90
2024-01-20T05:31:56.558Z,1017.86
2024-01-20T05:32:57.652Z,1017.72
2024-01-20T05:33:56.706Z,1017.92
2024-01-20T05:34:56.640Z,1017.93
2024-01-20T05:35:57.696Z,1017.93
2024-01-20T05:36:56.680Z,1017.90
2024-01-20T05:37:57.689Z,1017.92
2024-01-20T05:38:56.724Z,1017.90
2024-01-20T05:39:56.736Z,1017.95
2024-01-20T05:40:57.768Z,1017.91
2024-01-20T05:41:56.846Z,1017.98
2024-01-20T05:42:57.836Z,1017.97
2024-01-20T05:43:56.823Z,1018.05
2024-01-20T05:44:56.882Z,1017.96
2024-01-20T05:45:57.905Z,1017.92
2024-01-20T05:46:56.931Z,1017.92
2024-01-20T05:47:57.977Z,1018.03
2024-01-20T05:48:57.176Z,1017.89
2024-01-20T05:49:57.057Z,1018.09
2024-01-20T05:50:58.211Z,1017.97
2024-01-20T05:51:57.021Z,1018.00
2024-01-20T05:52:58.062Z,1017.94
2024-01-20T05:53:57.115Z,1017.93
2024-01-20T05:54:57.100Z,1017.94
2024-01-20T05:55:58.144Z,1017.93
2024-01-20T05:56:57.188Z,1017.94
2024-01-20T05:57:58.174Z,1017.89
2024-01-20T05:58:57.184Z,1017.95
2024-01-20T05:59:57.251Z,1017.91
2024-01-20T06:00:58.343Z,1017.96
2024-01-20T06:01:57.251Z,1017.94
2024-01-20T06:02:58.432Z,1017.90
2024-01-20T06:03:57.387Z,1017.85
2024-01-20T06:04:57.392Z,1017.90
2024-01-20T06:05:58.395Z,1018.00
2024-01-20T06:06:57.377Z,1018.04
2024-01-20T06:07:58.407Z,1017.94
2024-01-20T06:08:57.469Z,1017.94
2024-01-20T06:09:57.445Z,1018.03
2024-01-20T06:10:58.492Z,1017.89
2024-01-20T06:11:57.515Z,1017.93
2024-01-20T06:12:58.541Z,1017.93
2024-01-20T06:13:57.550Z,1017.92
2024-01-20T06:14:57.698Z,1018.06
2024-01-20T06:15:58.607Z,1018.01
2024-01-20T06:16:57.628Z,1018.11
2024-01-20T06:17:58.703Z,1018.09
2024-01-20T06:18:57.738Z,1017.97
2024-01-20T06:19:57.740Z,1018.02
2024-01-20T06:20:58.797Z,1017.92
2024-01-20T06:21:57.792Z,1017.97
2024-01-20T06:22:58.758Z,1018.00
2024-01-20T06:23:57.840Z,1018.01
2024-01-20T06:24:58.018Z,1018.02
2024-01-20T06:25:58.836Z,1017.97
2024-01-20T06:26:57.871Z,1018.08
2024-01-20T06:27:58.877Z,1018.07
2024-01-20T06:28:57.905Z,1018.01
2024-01-20T06:29:57.931Z,1018.09
2024-01-20T06:30:58.968Z,1018.12
2024-01-20T06:31:58.030Z,1018.23
2024-01-20T06:32:59.105Z,1018.21
2024-01-20T06:33:58.093Z,1018.24
2024-01-20T06:34:58.038Z,1018.28
2024-01-20T06:35:59.123Z,1018.32
2024-01-20T06:36:58.149Z,1018.29
2024-01-20T06:37:59.107Z,1018.34
2024-01-20T06:38:58.132Z,1018.31
2024-01-20T06:39:58.158Z,1018.36
2024-01-20T06:40:59.186Z,1018.25
2024-01-20T06:41:58.219Z,1018.35
2024-01-20T06:42:59.258Z,1018.28
2024-01-20T06:43:58.257Z,1018.37
2024-01-20T06:45:00.170Z,1018.39
2024-01-20T06:45:59.300Z,1018.37
2024-01-20T06:46:58.361Z,1018.41
2024-01-20T06:47:59.471Z,1018.39
2024-01-20T06:48:58.504Z,1018.53
2024-01-20T06:49:58.373Z,1018.46
2024-01-20T06:50:59.469Z,1018.48
2024-01-20T06:51:58.418Z,1018.49
2024-01-20T06:52:59.474Z,1018.45
2024-01-20T06:53:58.916Z,1018.42
2024-01-20T06:54:58.502Z,1018.33
2024-01-20T06:55:59.535Z,1018.32
2024-01-20T06:56:58.588Z,1018.32
2024-01-20T06:57:59.571Z,1018.36
2024-01-20T06:58:58.588Z,1018.42
2024-01-20T06:59:58.619Z,1018.37
2024-01-20T07:00:59.707Z,1018.43
2024-01-20T07:01:58.650Z,1018.41
2024-01-20T07:02:59.739Z,1018.51
2024-01-20T07:03:58.861Z,1018.36
2024-01-20T07:04:58.730Z,1018.39
2024-01-20T07:05:59.825Z,1018.43
2024-01-20T07:06:58.775Z,1018.37
2024-01-20T07:07:59.803Z,1018.38
2024-01-20T07:08:58.848Z,1018.44
2024-01-20T07:09:58.838Z,1018.39
2024-01-20T07:10:59.881Z,1018.42
2024-01-20T07:11:59.172Z,1018.45
2024-01-20T07:12:59.945Z,1018.50
2024-01-20T07:13:58.933Z,1018.46
2024-01-20T07:14:59.028Z,1018.53
2024-01-20T07:16:00.002Z,1018.63
2024-01-20T07:16:59.012Z,1018.64
2024-01-20T07:18:00.104Z,1018.65
2024-01-20T07:18:59.152Z,1018.66
2024-01-20T07:19:59.071Z,1018.65
2024-01-20T07:21:00.150Z,1018.73
2024-01-20T07:21:59.123Z,1018.73
2024-01-20T07:23:00.178Z,1018.71
2024-01-20T07:23:59.209Z,1018.71
2024-01-20T07:24:59.210Z,1018.66
2024-01-20T07:26:00.226Z,1018.70
2024-01-20T07:26:59.341Z,1018.70
2024-01-20T07:28:00.276Z,1018.75
2024-01-20T07:29:00.517Z,1018.72
2024-01-20T07:29:59.351Z,1018.80
2024-01-20T07:31:00.345Z,1018.82
2024-01-20T07:31:59.355Z,1018.78
2024-01-20T07:33:00.636Z,1018.81
2024-01-20T07:33:59.581Z,1018.79
2024-01-20T07:34:59.467Z,1018.84
2024-01-20T07:36:00.501Z,1018.86
2024-01-20T07:36:59.476Z,1018.86
2024-01-20T07:38:00.509Z,1018.94
2024-01-20T07:38:59.607Z,1018.92
2024-01-20T07:39:59.589Z,1018.96
2024-01-20T07:41:00.584Z,1018.94
2024-01-20T07:41:59.648Z,1018.97
2024-01-20T07:43:00.683Z,1018.96
2024-01-20T07:43:59.653Z,1018.87
2024-01-20T07:44:59.681Z,1018.86
2024-01-20T07:46:00.715Z,1018.85
2024-01-20T07:46:59.733Z,1018.94
2024-01-20T07:48:00.824Z,1018.89
2024-01-20T07:48:59.835Z,1019.00
2024-01-20T07:49:59.789Z,1018.99
2024-01-20T07:51:00.880Z,1018.95
2024-01-20T07:51:59.829Z,1018.96
2024-01-20T07:53:00.864Z,1019.04
2024-01-20T07:53:59.948Z,1018.92
2024-01-20T07:54:59.913Z,1018.96
2024-01-20T07:56:00.940Z,1019.04
2024-01-20T07:56:59.987Z,1018.99
2024-01-20T07:58:01.006Z,1019.04
2024-01-20T07:59:00.001Z,1019.02
2024-01-20T08:00:00.121Z,1019.08
2024-01-20T08:01:01.092Z,1019.09
2024-01-20T08:02:00.072Z,1019.12
2024-01-20T08:03:01.141Z,1019.08
2024-01-20T08:04:00.157Z,1019.08
2024-01-20T08:05:00.187Z,1019.14
2024-01-20T08:06:01.282Z,1019.14
2024-01-20T08:07:00.292Z,1019.10
2024-01-20T08:08:01.228Z,1019.17
2024-01-20T08:09:00.377Z,1019.19
2024-01-20T08:10:00.328Z,1019.23
2024-01-20T08:11:01.305Z,1019.20
2024-01-20T08:12:00.371Z,1019.24
2024-01-20T08:13:01.373Z,1019.17
2024-01-20T08:14:00.354Z,1019.33
2024-01-20T08:15:00.442Z,1019.28
2024-01-20T08:16:01.415Z,1019.20
2024-01-20T08:17:00.450Z,1019.26
2024-01-20T08:18:01.529Z,1019.33
2024-01-20T08:19:00.616Z,1019.27
2024-01-20T08:20:00.660Z,1019.35
2024-01-20T08:21:01.554Z,1019.28
2024-01-20T08:22:00.572Z,1019.32
2024-01-20T08:23:01.588Z,1019.32
2024-01-20T08:24:00.653Z,1019.30
2024-01-20T08:25:00.666Z,1019.31
2024-01-20T08:26:01.642Z,1019.30
2024-01-20T08:27:00.706Z,1019.21
2024-01-20T08:28:01.695Z,1019.26
2024-01-20T08:29:00.738Z,1019.26
2024-01-20T08:30:00.857Z,1019.34
2024-01-20T08:31:01.858Z,1019.29
2024-01-20T08:32:00.844Z,1019.25
2024-01-20T08:33:04.350Z,1019.32
2024-01-20T08:34:00.950Z,1019.34
2024-01-20T08:35:00.863Z,1019.34
2024-01-20T08:36:01.911Z,1019.39
2024-01-20T08:37:00.902Z,1019.34
2024-01-20T08:38:01.926Z,1019.41
2024-01-20T08:39:00.965Z,1019.36
2024-01-20T08:40:00.972Z,1019.39
2024-01-20T08:41:02.057Z,1019.36
2024-01-20T08:42:01.071Z,1019.36
2024-01-20T08:43:02.064Z,1019.34
2024-01-20T08:44:01.063Z,1019.42
2024-01-20T08:45:01.305Z,1019.42
2024-01-20T08:46:02.126Z,1019.39
2024-01-20T08:47:01.142Z,1019.50
2024-01-20T08:48:02.226Z,1019.52
2024-01-20T08:49:01.220Z,1019.43
2024-01-20T08:50:01.215Z,1019.51
2024-01-20T08:51:02.293Z,1019.51
2024-01-20T08:52:01.260Z,1019.50
2024-01-20T08:53:02.353Z,1019.56
2024-01-20T08:54:01.328Z,1019.57
2024-01-20T08:55:01.335Z,1019.59
2024-01-20T08:56:02.375Z,1019.56
2024-01-20T08:57:01.434Z,1019.60
2024-01-20T08:58:02.429Z,1019.60
2024-01-20T08:59:01.440Z,1019.49
2024-01-20T09:00:01.494Z,1019.58
2024-01-20T09:01:02.582Z,1019.72
2024-01-20T09:02:01.489Z,1019.60
2024-01-20T09:03:02.759Z,1019.61
2024-01-20T09:04:01.544Z,1019.61
2024-01-20T09:05:01.574Z,1019.59
2024-01-20T09:06:02.732Z,1019.58
2024-01-20T09:07:01.735Z,1019.58
2024-01-20T09:08:02.657Z,1019.55
2024-01-20T09:09:01.702Z,1019.59
2024-01-20T09:10:01.697Z,1019.61
2024-01-20T09:11:02.717Z,1019.60
2024-01-20T09:12:01.765Z,1019.62
2024-01-20T09:13:02.772Z,1019.67
2024-01-20T09:14:02.145Z,1019.67
2024-01-20T09:15:01.948Z,1019.70
2024-01-20T09:16:02.962Z,1019.73
2024-01-20T09:17:01.857Z,1019.75
2024-01-20T09:18:02.978Z,1019.73
2024-01-20T09:19:02.140Z,1019.76
2024-01-20T09:20:02.203Z,1019.81
2024-01-20T09:21:02.979Z,1019.88
2024-01-20T09:22:01.958Z,1019.79
2024-01-20T09:23:03.050Z,1019.77
2024-01-20T09:24:03.029Z,1019.81
2024-01-20T09:25:02.028Z,1019.83
2024-01-20T09:26:03.070Z,1019.87
2024-01-20T09:27:02.143Z,1019.84
2024-01-20T09:28:03.121Z,1019.85
2024-01-20T09:29:02.122Z,1019.95
2024-01-20T09:30:02.231Z,1019.99
2024-01-20T09:31:03.179Z,1019.91
2024-01-20T09:32:02.204Z,1020.08
2024-01-20T09:33:03.336Z,1020.13
2024-01-20T09:34:02.392Z,1020.09
2024-01-20T09:35:02.257Z,1020.15
2024-01-20T09:36:03.342Z,1020.09
2024-01-20T09:37:02.337Z,1020.15
2024-01-20T09:38:03.363Z,1020.10
2024-01-20T09:39:02.448Z,1020.14
2024-01-20T09:40:02.427Z,1020.03
2024-01-20T09:41:03.410Z,1020.06
2024-01-20T09:42:02.485Z,1020.05
2024-01-20T09:43:03.455Z,1020.12
2024-01-20T09:44:02.492Z,1020.21
2024-01-20T09:45:02.600Z,1020.18
2024-01-20T09:46:03.537Z,1020.14
2024-01-20T09:47:02.576Z,1020.19
2024-01-20T09:48:03.704Z,1020.19
2024-01-20T09:49:02.846Z,1020.24
2024-01-20T09:50:02.628Z,1020.25
2024-01-20T09:51:03.656Z,1020.27
2024-01-20T09:52:02.670Z,1020.23
2024-01-20T09:53:03.694Z,1020.34
2024-01-20T09:54:02.782Z,1020.26
2024-01-20T09:55:02.731Z,1020.31
2024-01-20T09:56:03.782Z,1020.41
2024-01-20T09:57:02.814Z,1020.30
2024-01-20T09:58:03.816Z,1020.24
2024-01-20T09:59:02.844Z,1020.26
2024-01-20T10:00:03.008Z,1020.27
2024-01-20T10:01:04.089Z,1020.32
2024-01-20T10:02:02.907Z,1020.55
2024-01-20T10:03:03.968Z,1020.32
2024-01-20T10:04:03.113Z,1020.34
2024-01-20T10:05:03.052Z,1020.25
2024-01-20T10:06:04.056Z,1020.40
2024-01-20T10:07:03.042Z,1020.40
2024-01-20T10:08:04.070Z,1020.27
2024-01-20T10:09:03.110Z,1020.35
2024-01-20T10:10:03.178Z,1020.38
2024-01-20T10:11:04.138Z,1020.29
2024-01-20T10:12:03.185Z,1020.32
2024-01-20T10:13:04.279Z,1020.27
2024-01-20T10:14:03.217Z,1020.23
2024-01-20T10:15:03.303Z,1020.26
2024-01-20T10:16:04.257Z,1020.31
2024-01-20T10:17:03.266Z,1020.29
2024-01-20T10:18:04.450Z,1020.25
2024-01-20T10:19:03.348Z,1020.30
2024-01-20T10:20:03.503Z,1020.35
2024-01-20T10:21:04.403Z,1020.30
2024-01-20T10:22:03.397Z,1020.43
2024-01-20T10:23:04.438Z,1020.51
2024-01-20T10:24:03.486Z,1020.45
2024-01-20T10:25:03.464Z,1020.33
2024-01-20T10:26:04.506Z,1020.35
2024-01-20T10:27:03.532Z,1020.44
2024-01-20T10:28:04.562Z,1020.36
2024-01-20T10:29:03.598Z,1020.35
2024-01-20T10:30:03.712Z,1020.38
2024-01-20T10:31:04.646Z,1020.36
2024-01-20T10:32:03.729Z,1020.39
2024-01-20T10:33:09.796Z,1020.34
2024-01-20T10:34:04.037Z,1020.34
2024-01-20T10:35:04.137Z,1020.43
2024-01-20T10:36:04.953Z,1020.45
2024-01-20T10:37:03.788Z,1020.52
2024-01-20T10:38:04.847Z,1020.58
2024-01-20T10:39:04.050Z,1020.52
2024-01-20T10:40:03.888Z,1020.44
2024-01-20T10:41:04.912Z,1020.47
2024-01-20T10:42:03.970Z,1020.53
2024-01-20T10:43:04.964Z,1020.45
2024-01-20T10:44:04.087Z,1020.46
2024-01-20T10:45:04.046Z,1020.46
2024-01-20T10:46:05.043Z,1020.53
2024-01-20T10:47:04.054Z,1020.68
2024-01-20T10:48:06.182Z,1020.66
2024-01-20T10:49:04.220Z,1020.60
2024-01-20T10:50:04.136Z,1020.66
2024-01-20T10:51:05.239Z,1020.68
2024-01-20T10:52:04.282Z,1020.58
2024-01-20T10:53:05.220Z,1020.67
2024-01-20T10:54:04.821Z,1020.68
2024-01-20T10:55:04.276Z,1020.86
2024-01-20T10:56:05.305Z,1020.67
2024-01-20T10:57:04.333Z,1020.72
2024-01-20T10:58:05.363Z,1020.61
2024-01-20T10:59:04.368Z,1020.62
2024-01-20T11:00:04.497Z,1020.60
2024-01-20T11:01:05.456Z,1020.58
2024-01-20T11:02:04.462Z,1020.58
2024-01-20T11:03:05.522Z,1020.62
2024-01-20T11:04:04.712Z,1020.55
2024-01-20T11:05:04.533Z,1020.64
2024-01-20T11:06:05.673Z,1020.56
2024-01-20T11:07:04.653Z,1020.47
2024-01-20T11:08:05.635Z,1020.54
2024-01-20T11:09:04.679Z,1020.54
2024-01-20T11:10:04.689Z,1020.53
2024-01-20T11:11:05.791Z,1020.54
2024-01-20T11:12:04.909Z,1020.46
2024-01-20T11:13:05.778Z,1020.48
2024-01-20T11:14:04.789Z,1020.48
2024-01-20T11:15:04.901Z,1020.47
2024-01-20T11:16:05.858Z,1020.56
2024-01-20T11:17:04.882Z,1020.47
2024-01-20T11:18:05.942Z,1020.51
2024-01-20T11:19:05.063Z,1020.45
2024-01-20T11:20:04.954Z,1020.48
2024-01-20T11:21:06.044Z,1020.46
2024-01-20T11:22:05.008Z,1020.46
2024-01-20T11:23:06.023Z,1020.46
2024-01-20T11:24:05.087Z,1020.44
2024-01-20T11:25:05.075Z,1020.49
2024-01-20T11:26:06.111Z,1020.49
2024-01-20T11:27:05.251Z,1020.52
2024-01-20T11:28:06.171Z,1020.51
2024-01-20T11:29:05.182Z,1020.52
2024-01-20T11:30:05.240Z,1020.53
2024-01-20T11:31:06.244Z,1020.39
2024-01-20T11:32:05.267Z,1020.43
2024-01-20T11:33:06.450Z,1020.46
2024-01-20T11:34:05.492Z,1020.42
2024-01-20T11:35:05.328Z,1020.36
2024-01-20T11:36:06.416Z,1020.39
2024-01-20T11:37:05.453Z,1020.40
2024-01-20T11:38:06.446Z,1020.38
2024-01-20T11:39:05.464Z,1020.41
2024-01-20T11:40:05.501Z,1020.42
2024-01-20T11:41:06.521Z,1020.48
2024-01-20T11:42:05.590Z,1020.44
2024-01-20T11:43:06.592Z,1020.44
2024-01-20T11:44:05.614Z,1020.44
2024-01-20T11:45:05.675Z,1020.44
2024-01-20T11:46:06.678Z,1020.46
2024-01-20T11:47:05.701Z,1020.44
2024-01-20T11:48:08.223Z,1020.44
2024-01-20T11:49:05.872Z,1020.44
2024-01-20T11:50:05.862Z,1020.47
2024-01-20T11:51:06.897Z,1020.39
2024-01-20T11:52:05.860Z,1020.44
2024-01-20T11:53:06.915Z,1020.45
2024-01-20T11:54:05.964Z,1020.39
2024-01-20T11:55:06.001Z,1020.42
2024-01-20T11:56:07.005Z,1020.44
2024-01-20T11:57:06.076Z,1020.45
2024-01-20T11:58:07.065Z,1020.52
2024-01-20T11:59:06.086Z,1020.47
2024-01-20T12:00:06.357Z,1020.37
2024-01-20T12:01:07.255Z,1020.32
2024-01-20T12:02:06.213Z,1020.37
2024-01-20T12:03:07.350Z,1020.44
2024-01-20T12:04:06.256Z,1020.49
2024-01-20T12:05:12.095Z,1020.48
2024-01-20T12:06:09.701Z,1020.55